LGL7F LPMA-ELLX
Flight info
| Callsign | LGL7F |
|---|---|
| Flight time | 3h 39m |
| Altitude | 36000 |
| Route | DEGUN DCT GALPA DCT TOSDI/N0454F380 N745 ZMR N873 DELOG DCT PEXOD DCT YURZI DCT OLEBA UN471 NTS DCT PIWIZ DCT TSU/N0453F340 UM163 LEQOS DCT CTL DCT MMD |
| Aircraft | B38M/M-SDE1FGHILORVWXY/HB1 |
Departure
| Time | 2026-05-06 14:49 |
|---|---|
| Airport | Cristiano Ronaldo International Airport (LPMA) |
Arrival
| Time | 2026-05-06 18:29 |
|---|---|
| Airport | Luxembourg-Findel International Airport (ELLX) |
| Time | Latitude | Longitude | Altitude | Speed | Heading |
|---|---|---|---|---|---|
| 2026-05-06 14:25 | 32.69440 | -16.77559 | 179 ft | 0 kts | 138° |
| 2026-05-06 14:42 | 32.69442 | -16.77561 | 179 ft | 2 kts | 139° |
| 2026-05-06 14:42 | 32.69462 | -16.77580 | 179 ft | 4 kts | 147° |
| 2026-05-06 14:43 | 32.69486 | -16.77593 | 179 ft | 4 kts | 169° |
| 2026-05-06 14:43 | 32.69508 | -16.77589 | 179 ft | 3 kts | 223° |
| 2026-05-06 14:43 | 32.69510 | -16.77587 | 179 ft | 2 kts | 226° |
| 2026-05-06 14:45 | 32.69502 | -16.77597 | 179 ft | 3 kts | 226° |
| 2026-05-06 14:45 | 32.69482 | -16.77622 | 179 ft | 5 kts | 226° |
| 2026-05-06 14:45 | 32.69451 | -16.77660 | 179 ft | 8 kts | 226° |
| 2026-05-06 14:46 | 32.69410 | -16.77711 | 179 ft | 10 kts | 226° |
| 2026-05-06 14:46 | 32.69359 | -16.77774 | 179 ft | 12 kts | 225° |
| 2026-05-06 14:46 | 32.69300 | -16.77851 | 179 ft | 14 kts | 238° |
| 2026-05-06 14:46 | 32.69290 | -16.77967 | 179 ft | 15 kts | 268° |
| 2026-05-06 14:47 | 32.69243 | -16.78082 | 179 ft | 17 kts | 227° |
| 2026-05-06 14:47 | 32.69156 | -16.78187 | 179 ft | 19 kts | 225° |
| 2026-05-06 14:47 | 32.69037 | -16.78324 | 179 ft | 23 kts | 221° |
| 2026-05-06 14:47 | 32.68922 | -16.78408 | 179 ft | 10 kts | 207° |
| 2026-05-06 14:48 | 32.68906 | -16.78474 | 179 ft | 7 kts | 328° |
| 2026-05-06 14:48 | 32.68940 | -16.78452 | 179 ft | 7 kts | 65° |
| 2026-05-06 14:48 | 32.68958 | -16.78419 | 179 ft | 0 kts | 48° |
| 2026-05-06 14:49 | 32.68993 | -16.78373 | 179 ft | 36 kts | 47° |
| 2026-05-06 14:49 | 32.69388 | -16.77916 | 179 ft | 120 kts | 44° |
| 2026-05-06 14:49 | 32.70129 | -16.77023 | 332 ft | 172 kts | 44° |
| 2026-05-06 14:49 | 32.70944 | -16.75890 | 1134 ft | 189 kts | 47° |
| 2026-05-06 14:50 | 32.71767 | -16.74628 | 2052 ft | 203 kts | 62° |
| 2026-05-06 14:50 | 32.72018 | -16.72890 | 2554 ft | 230 kts | 95° |
| 2026-05-06 14:50 | 32.71750 | -16.70948 | 3245 ft | 244 kts | 95° |
| 2026-05-06 14:50 | 32.71259 | -16.69021 | 4389 ft | 246 kts | 114° |
| 2026-05-06 14:51 | 32.70437 | -16.67162 | 5205 ft | 263 kts | 115° |
| 2026-05-06 14:51 | 32.69637 | -16.65133 | 5871 ft | 281 kts | 104° |
| 2026-05-06 14:51 | 32.69655 | -16.62836 | 6768 ft | 279 kts | 69° |
| 2026-05-06 14:51 | 32.70691 | -16.60928 | 7651 ft | 279 kts | 40° |
| 2026-05-06 14:52 | 32.72095 | -16.59332 | 8671 ft | 280 kts | 44° |
| 2026-05-06 14:52 | 32.73425 | -16.57624 | 9652 ft | 283 kts | 45° |
| 2026-05-06 14:52 | 32.74760 | -16.55885 | 10495 ft | 290 kts | 44° |
| 2026-05-06 14:52 | 32.76156 | -16.54040 | 10945 ft | 310 kts | 46° |
| 2026-05-06 14:53 | 32.77638 | -16.52052 | 11308 ft | 331 kts | 46° |
| 2026-05-06 14:53 | 32.79199 | -16.49952 | 11768 ft | 346 kts | 46° |
| 2026-05-06 14:53 | 32.80814 | -16.47783 | 12418 ft | 353 kts | 46° |
| 2026-05-06 14:53 | 32.82457 | -16.45595 | 13210 ft | 357 kts | 45° |
| 2026-05-06 14:54 | 32.84124 | -16.43376 | 13910 ft | 362 kts | 45° |
| 2026-05-06 14:54 | 32.85813 | -16.41128 | 14572 ft | 366 kts | 45° |
| 2026-05-06 14:54 | 32.87520 | -16.38855 | 15245 ft | 370 kts | 45° |
| 2026-05-06 14:54 | 32.89240 | -16.36565 | 15889 ft | 373 kts | 45° |
| 2026-05-06 14:55 | 32.90975 | -16.34253 | 16526 ft | 377 kts | 45° |
| 2026-05-06 14:55 | 32.92735 | -16.31908 | 17100 ft | 382 kts | 45° |
| 2026-05-06 14:55 | 32.94513 | -16.29537 | 17714 ft | 385 kts | 45° |
| 2026-05-06 14:55 | 32.96305 | -16.27144 | 18316 ft | 389 kts | 45° |
| 2026-05-06 14:56 | 32.98117 | -16.24723 | 18839 ft | 392 kts | 45° |
| 2026-05-06 14:56 | 32.99937 | -16.22291 | 19370 ft | 395 kts | 44° |
| 2026-05-06 14:56 | 33.01772 | -16.19837 | 19884 ft | 398 kts | 44° |
| 2026-05-06 14:56 | 33.03597 | -16.17395 | 20388 ft | 401 kts | 44° |
| 2026-05-06 14:57 | 33.05453 | -16.14910 | 20897 ft | 403 kts | 44° |
| 2026-05-06 14:57 | 33.07326 | -16.12401 | 21388 ft | 406 kts | 44° |
| 2026-05-06 14:57 | 33.09209 | -16.09876 | 21902 ft | 409 kts | 44° |
| 2026-05-06 14:57 | 33.11108 | -16.07328 | 22406 ft | 412 kts | 44° |
| 2026-05-06 14:58 | 33.13019 | -16.04764 | 22899 ft | 415 kts | 44° |
| 2026-05-06 14:58 | 33.14943 | -16.02179 | 23400 ft | 418 kts | 44° |
| 2026-05-06 14:58 | 33.16882 | -15.99572 | 23885 ft | 421 kts | 44° |
| 2026-05-06 14:58 | 33.18834 | -15.96946 | 24283 ft | 425 kts | 44° |
| 2026-05-06 14:59 | 33.20800 | -15.94299 | 24718 ft | 427 kts | 44° |
| 2026-05-06 14:59 | 33.22774 | -15.91641 | 25179 ft | 429 kts | 44° |
| 2026-05-06 14:59 | 33.24758 | -15.88967 | 25619 ft | 430 kts | 43° |
| 2026-05-06 14:59 | 33.26748 | -15.86282 | 26066 ft | 432 kts | 43° |
| 2026-05-06 15:00 | 33.28740 | -15.83593 | 26511 ft | 433 kts | 43° |
| 2026-05-06 15:00 | 33.30741 | -15.80891 | 26955 ft | 435 kts | 43° |
| 2026-05-06 15:00 | 33.32754 | -15.78170 | 27342 ft | 438 kts | 43° |
| 2026-05-06 15:00 | 33.34772 | -15.75439 | 27767 ft | 439 kts | 43° |
| 2026-05-06 15:01 | 33.36799 | -15.72695 | 28173 ft | 441 kts | 43° |
| 2026-05-06 15:01 | 33.38832 | -15.69941 | 28575 ft | 443 kts | 43° |
| 2026-05-06 15:01 | 33.40874 | -15.67173 | 28987 ft | 444 kts | 43° |
| 2026-05-06 15:01 | 33.43099 | -15.64651 | 29326 ft | 438 kts | 32° |
| 2026-05-06 15:02 | 33.45527 | -15.62430 | 29625 ft | 443 kts | 33° |
| 2026-05-06 15:02 | 33.47963 | -15.60139 | 29865 ft | 447 kts | 33° |
| 2026-05-06 15:02 | 33.50413 | -15.57842 | 30307 ft | 447 kts | 33° |
| 2026-05-06 15:02 | 33.52868 | -15.55542 | 30642 ft | 448 kts | 33° |
| 2026-05-06 15:03 | 33.55319 | -15.53246 | 31019 ft | 448 kts | 33° |
| 2026-05-06 15:03 | 33.57777 | -15.50941 | 31395 ft | 448 kts | 33° |
| 2026-05-06 15:03 | 33.60228 | -15.48641 | 31753 ft | 448 kts | 33° |
| 2026-05-06 15:03 | 33.62684 | -15.46335 | 32118 ft | 448 kts | 33° |
| 2026-05-06 15:04 | 33.65134 | -15.44032 | 32483 ft | 448 kts | 33° |
| 2026-05-06 15:04 | 33.67585 | -15.41728 | 32854 ft | 448 kts | 33° |
| 2026-05-06 15:04 | 33.70038 | -15.39419 | 33208 ft | 448 kts | 33° |
| 2026-05-06 15:04 | 33.72487 | -15.37112 | 33563 ft | 448 kts | 33° |
| 2026-05-06 15:05 | 33.74937 | -15.34804 | 33927 ft | 448 kts | 33° |
| 2026-05-06 15:05 | 33.77390 | -15.32490 | 34269 ft | 447 kts | 33° |
| 2026-05-06 15:05 | 33.79829 | -15.30188 | 34667 ft | 444 kts | 33° |
| 2026-05-06 15:05 | 33.82248 | -15.27903 | 35053 ft | 442 kts | 33° |
| 2026-05-06 15:06 | 33.84663 | -15.25620 | 35378 ft | 441 kts | 33° |
| 2026-05-06 15:06 | 33.87072 | -15.23342 | 35695 ft | 440 kts | 33° |
| 2026-05-06 15:06 | 33.89441 | -15.21099 | 36005 ft | 438 kts | 32° |
| 2026-05-06 15:06 | 33.91834 | -15.18832 | 36297 ft | 437 kts | 32° |
| 2026-05-06 15:07 | 33.94224 | -15.16566 | 36583 ft | 436 kts | 32° |
| 2026-05-06 15:07 | 33.96606 | -15.14306 | 36868 ft | 435 kts | 32° |
| 2026-05-06 15:07 | 33.98980 | -15.12052 | 37145 ft | 434 kts | 32° |
| 2026-05-06 15:07 | 34.01353 | -15.09797 | 37401 ft | 434 kts | 32° |
| 2026-05-06 15:08 | 34.03720 | -15.07547 | 37666 ft | 433 kts | 32° |
| 2026-05-06 15:08 | 34.06076 | -15.05305 | 37944 ft | 432 kts | 32° |
| 2026-05-06 15:08 | 34.08436 | -15.03057 | 38123 ft | 432 kts | 32° |
| 2026-05-06 15:09 | 34.13142 | -14.98570 | 38093 ft | 429 kts | 32° |
| 2026-05-06 15:09 | 34.17826 | -14.94099 | 38113 ft | 430 kts | 32° |
| 2026-05-06 15:10 | 34.22531 | -14.89601 | 38102 ft | 433 kts | 32° |
| 2026-05-06 15:10 | 34.27251 | -14.85081 | 38099 ft | 433 kts | 32° |
| 2026-05-06 15:11 | 34.31977 | -14.80550 | 38102 ft | 433 kts | 32° |
| 2026-05-06 15:11 | 34.36696 | -14.76020 | 38107 ft | 433 kts | 32° |
| 2026-05-06 15:12 | 34.41265 | -14.71260 | 38104 ft | 436 kts | 37° |
| 2026-05-06 15:12 | 34.45683 | -14.66216 | 38092 ft | 436 kts | 37° |
| 2026-05-06 15:13 | 34.50092 | -14.61237 | 38095 ft | 436 kts | 36° |
| 2026-05-06 15:13 | 34.54564 | -14.56188 | 38111 ft | 437 kts | 37° |
| 2026-05-06 15:14 | 34.59009 | -14.51161 | 38110 ft | 442 kts | 37° |
| 2026-05-06 15:14 | 34.63505 | -14.46070 | 38112 ft | 442 kts | 37° |
| 2026-05-06 15:15 | 34.67989 | -14.40984 | 38080 ft | 439 kts | 37° |
| 2026-05-06 15:15 | 34.72455 | -14.35910 | 38093 ft | 440 kts | 37° |
| 2026-05-06 15:16 | 34.76919 | -14.30831 | 38091 ft | 440 kts | 37° |
| 2026-05-06 15:16 | 34.81383 | -14.25745 | 38089 ft | 440 kts | 37° |
| 2026-05-06 15:17 | 34.85847 | -14.20650 | 38099 ft | 440 kts | 37° |
| 2026-05-06 15:17 | 34.90339 | -14.15514 | 38090 ft | 446 kts | 38° |
| 2026-05-06 15:18 | 34.94866 | -14.10332 | 38096 ft | 445 kts | 37° |
| 2026-05-06 15:18 | 34.99363 | -14.05174 | 38087 ft | 444 kts | 37° |
| 2026-05-06 15:19 | 35.03860 | -14.00010 | 38084 ft | 444 kts | 37° |
| 2026-05-06 15:19 | 35.07595 | -13.95713 | 38083 ft | 444 kts | 37° |
| 2026-05-06 15:20 | 35.12089 | -13.90536 | 38081 ft | 444 kts | 37° |
| 2026-05-06 15:20 | 35.17307 | -13.84516 | 38093 ft | 445 kts | 38° |
| 2026-05-06 15:21 | 35.21093 | -13.80141 | 38088 ft | 450 kts | 38° |
| 2026-05-06 15:21 | 35.25646 | -13.74871 | 38076 ft | 450 kts | 38° |
| 2026-05-06 15:22 | 35.30189 | -13.69603 | 38078 ft | 450 kts | 38° |
| 2026-05-06 15:22 | 35.34702 | -13.64363 | 38078 ft | 450 kts | 38° |
| 2026-05-06 15:23 | 35.39245 | -13.59078 | 38075 ft | 450 kts | 38° |
| 2026-05-06 15:23 | 35.43788 | -13.53787 | 38075 ft | 450 kts | 38° |
| 2026-05-06 15:24 | 35.48322 | -13.48495 | 38088 ft | 451 kts | 38° |
| 2026-05-06 15:24 | 35.52889 | -13.43158 | 38073 ft | 454 kts | 38° |
| 2026-05-06 15:25 | 35.57466 | -13.37798 | 38071 ft | 454 kts | 38° |
| 2026-05-06 15:25 | 35.62037 | -13.32438 | 38069 ft | 454 kts | 38° |
| 2026-05-06 15:26 | 35.66608 | -13.27069 | 38065 ft | 454 kts | 38° |
| 2026-05-06 15:26 | 35.71174 | -13.21696 | 38072 ft | 454 kts | 38° |
| 2026-05-06 15:27 | 35.75742 | -13.16312 | 38067 ft | 454 kts | 38° |
| 2026-05-06 15:27 | 35.80305 | -13.10925 | 38082 ft | 456 kts | 39° |
| 2026-05-06 15:28 | 35.84892 | -13.05501 | 38072 ft | 458 kts | 39° |
| 2026-05-06 15:28 | 35.89483 | -13.00062 | 38064 ft | 458 kts | 39° |
| 2026-05-06 15:29 | 35.94071 | -12.94619 | 38062 ft | 458 kts | 39° |
| 2026-05-06 15:29 | 35.98659 | -12.89166 | 38061 ft | 458 kts | 39° |
| 2026-05-06 15:30 | 36.03245 | -12.83706 | 38058 ft | 458 kts | 39° |
| 2026-05-06 15:30 | 36.07828 | -12.78239 | 38075 ft | 458 kts | 39° |
| 2026-05-06 15:31 | 36.12413 | -12.72761 | 38061 ft | 460 kts | 39° |
| 2026-05-06 15:31 | 36.17023 | -12.67244 | 38056 ft | 461 kts | 39° |
| 2026-05-06 15:32 | 36.23907 | -12.58989 | 38053 ft | 461 kts | 39° |
| 2026-05-06 15:32 | 36.28511 | -12.53455 | 38053 ft | 461 kts | 39° |
| 2026-05-06 15:33 | 36.33115 | -12.47912 | 38056 ft | 461 kts | 39° |
| 2026-05-06 15:33 | 36.37716 | -12.42364 | 38055 ft | 461 kts | 40° |
| 2026-05-06 15:34 | 36.42324 | -12.36795 | 38055 ft | 464 kts | 40° |
| 2026-05-06 15:34 | 36.46965 | -12.31179 | 38051 ft | 466 kts | 40° |
| 2026-05-06 15:35 | 36.51601 | -12.25558 | 38050 ft | 466 kts | 40° |
| 2026-05-06 15:35 | 36.56239 | -12.19924 | 38050 ft | 466 kts | 40° |
| 2026-05-06 15:36 | 36.60872 | -12.14288 | 38049 ft | 466 kts | 40° |
| 2026-05-06 15:36 | 36.65504 | -12.08642 | 38052 ft | 465 kts | 40° |
| 2026-05-06 15:37 | 36.70123 | -12.03001 | 38058 ft | 466 kts | 41° |
| 2026-05-06 15:37 | 36.74778 | -11.97307 | 38065 ft | 471 kts | 41° |
| 2026-05-06 15:38 | 36.79447 | -11.91586 | 38046 ft | 470 kts | 41° |
| 2026-05-06 15:38 | 36.84110 | -11.85861 | 38047 ft | 470 kts | 41° |
| 2026-05-06 15:39 | 36.88771 | -11.80128 | 38056 ft | 470 kts | 41° |
| 2026-05-06 15:39 | 36.93422 | -11.74398 | 38038 ft | 469 kts | 41° |
| 2026-05-06 15:40 | 36.98065 | -11.68667 | 38042 ft | 469 kts | 41° |
| 2026-05-06 15:40 | 37.02701 | -11.62933 | 38040 ft | 469 kts | 41° |
| 2026-05-06 15:41 | 37.07339 | -11.57188 | 38040 ft | 469 kts | 41° |
| 2026-05-06 15:41 | 37.11977 | -11.51431 | 38040 ft | 469 kts | 41° |
| 2026-05-06 15:42 | 37.16607 | -11.45675 | 38064 ft | 469 kts | 41° |
| 2026-05-06 15:42 | 37.21230 | -11.39915 | 38038 ft | 468 kts | 41° |
| 2026-05-06 15:43 | 37.25846 | -11.34155 | 38042 ft | 468 kts | 41° |
| 2026-05-06 15:43 | 37.30433 | -11.28420 | 38032 ft | 471 kts | 41° |
| 2026-05-06 15:44 | 37.35088 | -11.22590 | 38035 ft | 472 kts | 41° |
| 2026-05-06 15:44 | 37.39666 | -11.16845 | 38037 ft | 472 kts | 41° |
| 2026-05-06 15:45 | 37.44308 | -11.11010 | 38051 ft | 472 kts | 41° |
| 2026-05-06 15:45 | 37.48950 | -11.05164 | 38031 ft | 471 kts | 41° |
| 2026-05-06 15:46 | 37.53580 | -10.99321 | 38033 ft | 471 kts | 41° |
| 2026-05-06 15:46 | 37.58212 | -10.93466 | 38034 ft | 471 kts | 42° |
| 2026-05-06 15:47 | 37.62861 | -10.87578 | 38029 ft | 475 kts | 42° |
| 2026-05-06 15:47 | 37.67522 | -10.81663 | 38015 ft | 475 kts | 42° |
| 2026-05-06 15:48 | 37.72181 | -10.75740 | 38027 ft | 475 kts | 42° |
| 2026-05-06 15:48 | 37.76824 | -10.69826 | 38016 ft | 474 kts | 42° |
| 2026-05-06 15:49 | 37.81467 | -10.63901 | 38028 ft | 474 kts | 42° |
| 2026-05-06 15:49 | 37.86113 | -10.57960 | 38022 ft | 474 kts | 42° |
| 2026-05-06 15:50 | 37.90761 | -10.52006 | 38032 ft | 477 kts | 43° |
| 2026-05-06 15:50 | 37.95385 | -10.46071 | 38014 ft | 477 kts | 43° |
| 2026-05-06 15:51 | 38.00047 | -10.40076 | 38030 ft | 477 kts | 43° |
| 2026-05-06 15:51 | 38.04697 | -10.34085 | 38019 ft | 477 kts | 43° |
| 2026-05-06 15:52 | 38.09355 | -10.28073 | 38020 ft | 477 kts | 43° |
| 2026-05-06 15:52 | 38.14005 | -10.22059 | 38015 ft | 477 kts | 43° |
| 2026-05-06 15:53 | 38.18651 | -10.16037 | 38008 ft | 478 kts | 43° |
| 2026-05-06 15:53 | 38.23317 | -10.09979 | 38013 ft | 479 kts | 43° |
| 2026-05-06 15:54 | 38.27972 | -10.03923 | 38008 ft | 479 kts | 43° |
| 2026-05-06 15:54 | 38.32631 | -9.97850 | 37998 ft | 479 kts | 43° |
| 2026-05-06 15:55 | 38.37285 | -9.91771 | 37999 ft | 479 kts | 43° |
| 2026-05-06 15:55 | 38.41937 | -9.85685 | 37999 ft | 479 kts | 43° |
| 2026-05-06 15:56 | 38.46589 | -9.79584 | 37993 ft | 480 kts | 43° |
| 2026-05-06 15:56 | 38.51241 | -9.73474 | 37999 ft | 480 kts | 43° |
| 2026-05-06 15:57 | 38.55892 | -9.67350 | 37989 ft | 480 kts | 43° |
| 2026-05-06 15:57 | 38.60538 | -9.61222 | 37987 ft | 480 kts | 43° |
| 2026-05-06 15:58 | 38.65182 | -9.55085 | 37988 ft | 480 kts | 43° |
| 2026-05-06 15:58 | 38.69828 | -9.48933 | 37980 ft | 480 kts | 43° |
| 2026-05-06 15:59 | 38.74464 | -9.42782 | 37999 ft | 481 kts | 43° |
| 2026-05-06 15:59 | 38.79109 | -9.36606 | 37989 ft | 481 kts | 43° |
| 2026-05-06 16:00 | 38.83747 | -9.30428 | 37997 ft | 481 kts | 43° |
| 2026-05-06 16:00 | 38.88388 | -9.24233 | 37995 ft | 481 kts | 43° |
| 2026-05-06 16:01 | 38.93024 | -9.18031 | 37965 ft | 481 kts | 43° |
| 2026-05-06 16:01 | 38.97651 | -9.11830 | 37966 ft | 481 kts | 43° |
| 2026-05-06 16:02 | 39.02283 | -9.05609 | 37971 ft | 482 kts | 44° |
| 2026-05-06 16:02 | 39.06911 | -8.99381 | 37961 ft | 482 kts | 44° |
| 2026-05-06 16:03 | 39.11542 | -8.93138 | 37958 ft | 482 kts | 44° |
| 2026-05-06 16:03 | 39.16172 | -8.86881 | 37954 ft | 482 kts | 44° |
| 2026-05-06 16:04 | 39.20796 | -8.80621 | 37948 ft | 482 kts | 44° |
| 2026-05-06 16:04 | 39.25383 | -8.74398 | 37961 ft | 482 kts | 44° |
| 2026-05-06 16:05 | 39.30026 | -8.68086 | 37936 ft | 482 kts | 44° |
| 2026-05-06 16:05 | 39.34612 | -8.61839 | 37927 ft | 483 kts | 44° |
| 2026-05-06 16:06 | 39.39229 | -8.55537 | 37930 ft | 482 kts | 44° |
| 2026-05-06 16:06 | 39.43839 | -8.49231 | 37928 ft | 482 kts | 44° |
| 2026-05-06 16:07 | 39.48447 | -8.42915 | 37925 ft | 482 kts | 44° |
| 2026-05-06 16:07 | 39.53049 | -8.36594 | 37923 ft | 482 kts | 44° |
| 2026-05-06 16:08 | 39.56892 | -8.31306 | 37920 ft | 481 kts | 44° |
| 2026-05-06 16:08 | 39.61481 | -8.24979 | 37917 ft | 482 kts | 44° |
| 2026-05-06 16:09 | 39.66039 | -8.18681 | 37907 ft | 482 kts | 44° |
| 2026-05-06 16:09 | 39.70623 | -8.12336 | 37909 ft | 482 kts | 44° |
| 2026-05-06 16:10 | 39.75205 | -8.05979 | 37935 ft | 482 kts | 44° |
| 2026-05-06 16:10 | 39.79778 | -7.99620 | 37905 ft | 481 kts | 44° |
| 2026-05-06 16:11 | 39.84345 | -7.93258 | 37902 ft | 481 kts | 44° |
| 2026-05-06 16:11 | 39.88913 | -7.86881 | 37901 ft | 481 kts | 44° |
| 2026-05-06 16:12 | 39.93473 | -7.80501 | 37899 ft | 481 kts | 44° |
| 2026-05-06 16:12 | 39.98031 | -7.74111 | 37902 ft | 481 kts | 44° |
| 2026-05-06 16:13 | 40.02586 | -7.67711 | 37907 ft | 481 kts | 45° |
| 2026-05-06 16:13 | 40.07125 | -7.61322 | 37905 ft | 480 kts | 45° |
| 2026-05-06 16:14 | 40.11669 | -7.54912 | 37900 ft | 481 kts | 45° |
| 2026-05-06 16:14 | 40.16209 | -7.48492 | 37898 ft | 481 kts | 45° |
| 2026-05-06 16:15 | 40.20742 | -7.42069 | 37899 ft | 481 kts | 45° |
| 2026-05-06 16:15 | 40.25282 | -7.35623 | 37915 ft | 481 kts | 45° |
| 2026-05-06 16:16 | 40.29800 | -7.29195 | 37903 ft | 480 kts | 45° |
| 2026-05-06 16:16 | 40.34318 | -7.22754 | 37907 ft | 480 kts | 45° |
| 2026-05-06 16:17 | 40.38835 | -7.16301 | 37887 ft | 480 kts | 45° |
| 2026-05-06 16:17 | 40.43352 | -7.09837 | 37885 ft | 480 kts | 45° |
| 2026-05-06 16:18 | 40.47830 | -7.03414 | 37909 ft | 480 kts | 45° |
| 2026-05-06 16:18 | 40.52339 | -6.96934 | 37901 ft | 480 kts | 45° |
| 2026-05-06 16:19 | 40.56838 | -6.90454 | 37897 ft | 480 kts | 45° |
| 2026-05-06 16:19 | 40.61339 | -6.83958 | 37886 ft | 480 kts | 45° |
| 2026-05-06 16:20 | 40.65837 | -6.77452 | 37886 ft | 481 kts | 45° |
| 2026-05-06 16:20 | 40.70334 | -6.70935 | 37895 ft | 481 kts | 45° |
| 2026-05-06 16:21 | 40.74836 | -6.64397 | 37886 ft | 481 kts | 46° |
| 2026-05-06 16:21 | 40.79297 | -6.57903 | 37892 ft | 481 kts | 46° |
| 2026-05-06 16:22 | 40.83788 | -6.51353 | 37896 ft | 481 kts | 46° |
| 2026-05-06 16:22 | 40.88271 | -6.44799 | 37903 ft | 481 kts | 46° |
| 2026-05-06 16:23 | 40.92758 | -6.38227 | 37906 ft | 482 kts | 46° |
| 2026-05-06 16:23 | 40.97247 | -6.31637 | 37915 ft | 481 kts | 46° |
| 2026-05-06 16:24 | 41.01994 | -6.25447 | 37929 ft | 479 kts | 40° |
| 2026-05-06 16:24 | 41.06934 | -6.19513 | 37911 ft | 479 kts | 40° |
| 2026-05-06 16:25 | 41.11882 | -6.13599 | 37917 ft | 479 kts | 40° |
| 2026-05-06 16:25 | 41.16828 | -6.07679 | 37907 ft | 479 kts | 40° |
| 2026-05-06 16:26 | 41.21774 | -6.01745 | 37926 ft | 479 kts | 40° |
| 2026-05-06 16:26 | 41.26712 | -5.95809 | 37919 ft | 479 kts | 40° |
| 2026-05-06 16:27 | 41.31649 | -5.89861 | 37922 ft | 479 kts | 40° |
| 2026-05-06 16:27 | 41.36591 | -5.83895 | 37919 ft | 479 kts | 40° |
| 2026-05-06 16:28 | 41.41523 | -5.77928 | 37930 ft | 479 kts | 40° |
| 2026-05-06 16:28 | 41.46448 | -5.71957 | 37930 ft | 478 kts | 40° |
| 2026-05-06 16:29 | 41.51367 | -5.65998 | 37930 ft | 478 kts | 38° |
| 2026-05-06 16:29 | 41.54104 | -5.63539 | 37902 ft | 470 kts | 22° |
| 2026-05-06 16:29 | 41.57091 | -5.61803 | 37947 ft | 470 kts | 21° |
| 2026-05-06 16:30 | 41.62083 | -5.58896 | 37926 ft | 471 kts | 20° |
| 2026-05-06 16:30 | 41.69135 | -5.54890 | 37931 ft | 470 kts | 20° |
| 2026-05-06 16:31 | 41.75155 | -5.51485 | 37932 ft | 470 kts | 20° |
| 2026-05-06 16:31 | 41.81139 | -5.48094 | 37935 ft | 470 kts | 20° |
| 2026-05-06 16:32 | 41.87159 | -5.44675 | 37944 ft | 470 kts | 20° |
| 2026-05-06 16:32 | 41.93174 | -5.41253 | 37932 ft | 469 kts | 20° |
| 2026-05-06 16:33 | 41.99187 | -5.37825 | 37937 ft | 470 kts | 20° |
| 2026-05-06 16:34 | 42.08210 | -5.32666 | 37956 ft | 470 kts | 20° |
| 2026-05-06 16:34 | 42.14211 | -5.29227 | 37941 ft | 469 kts | 20° |
| 2026-05-06 16:35 | 42.20227 | -5.25772 | 37940 ft | 469 kts | 20° |
| 2026-05-06 16:35 | 42.26232 | -5.22316 | 37940 ft | 469 kts | 20° |
| 2026-05-06 16:36 | 42.32238 | -5.18852 | 37936 ft | 469 kts | 20° |
| 2026-05-06 16:36 | 42.38236 | -5.15386 | 37937 ft | 468 kts | 20° |
| 2026-05-06 16:37 | 42.44227 | -5.11916 | 37940 ft | 469 kts | 20° |
| 2026-05-06 16:37 | 42.50222 | -5.08437 | 37959 ft | 469 kts | 20° |
| 2026-05-06 16:38 | 42.56209 | -5.04956 | 37937 ft | 467 kts | 20° |
| 2026-05-06 16:38 | 42.62185 | -5.01475 | 37946 ft | 467 kts | 20° |
| 2026-05-06 16:39 | 42.68159 | -4.97985 | 37957 ft | 468 kts | 20° |
| 2026-05-06 16:39 | 42.74128 | -4.94490 | 37959 ft | 467 kts | 20° |
| 2026-05-06 16:40 | 42.80096 | -4.90989 | 37966 ft | 467 kts | 20° |
| 2026-05-06 16:40 | 42.86067 | -4.87479 | 37963 ft | 468 kts | 20° |
| 2026-05-06 16:41 | 42.92040 | -4.83960 | 37975 ft | 468 kts | 20° |
| 2026-05-06 16:41 | 42.98009 | -4.80437 | 37985 ft | 467 kts | 20° |
| 2026-05-06 16:42 | 43.03928 | -4.76935 | 37994 ft | 467 kts | 20° |
| 2026-05-06 16:42 | 43.09922 | -4.73382 | 38001 ft | 467 kts | 21° |
| 2026-05-06 16:43 | 43.15843 | -4.69864 | 38015 ft | 466 kts | 21° |
| 2026-05-06 16:43 | 43.21821 | -4.66305 | 37999 ft | 465 kts | 21° |
| 2026-05-06 16:44 | 43.27760 | -4.62762 | 38021 ft | 466 kts | 21° |
| 2026-05-06 16:44 | 43.33661 | -4.59233 | 38015 ft | 466 kts | 21° |
| 2026-05-06 16:45 | 43.39594 | -4.55678 | 38016 ft | 465 kts | 21° |
| 2026-05-06 16:45 | 43.45530 | -4.52115 | 38018 ft | 465 kts | 21° |
| 2026-05-06 16:46 | 43.51463 | -4.48544 | 38016 ft | 465 kts | 21° |
| 2026-05-06 16:46 | 43.57395 | -4.44966 | 38022 ft | 465 kts | 21° |
| 2026-05-06 16:47 | 43.63307 | -4.41393 | 38017 ft | 464 kts | 21° |
| 2026-05-06 16:47 | 43.69222 | -4.37810 | 38009 ft | 464 kts | 21° |
| 2026-05-06 16:48 | 43.75133 | -4.34222 | 38019 ft | 464 kts | 21° |
| 2026-05-06 16:48 | 43.81039 | -4.30630 | 38002 ft | 463 kts | 21° |
| 2026-05-06 16:49 | 43.86944 | -4.27030 | 38009 ft | 464 kts | 21° |
| 2026-05-06 16:49 | 43.92847 | -4.23423 | 38003 ft | 463 kts | 21° |
| 2026-05-06 16:50 | 43.98742 | -4.19814 | 38004 ft | 463 kts | 21° |
| 2026-05-06 16:50 | 44.04637 | -4.16197 | 38005 ft | 463 kts | 21° |
| 2026-05-06 16:51 | 44.10517 | -4.12581 | 38004 ft | 463 kts | 21° |
| 2026-05-06 16:51 | 44.16404 | -4.08952 | 38017 ft | 463 kts | 21° |
| 2026-05-06 16:52 | 44.22281 | -4.05322 | 37999 ft | 461 kts | 21° |
| 2026-05-06 16:52 | 44.28146 | -4.01692 | 38002 ft | 461 kts | 21° |
| 2026-05-06 16:53 | 44.33888 | -3.97816 | 37984 ft | 463 kts | 33° |
| 2026-05-06 16:53 | 44.38329 | -3.93501 | 37966 ft | 464 kts | 32° |
| 2026-05-06 16:54 | 44.43642 | -3.88396 | 38008 ft | 464 kts | 32° |
| 2026-05-06 16:54 | 44.48962 | -3.83259 | 38004 ft | 464 kts | 32° |
| 2026-05-06 16:55 | 44.54270 | -3.78119 | 38000 ft | 464 kts | 32° |
| 2026-05-06 16:55 | 44.59577 | -3.72969 | 38001 ft | 463 kts | 32° |
| 2026-05-06 16:56 | 44.64874 | -3.67817 | 38002 ft | 463 kts | 33° |
| 2026-05-06 16:56 | 44.70169 | -3.62655 | 38002 ft | 463 kts | 33° |
| 2026-05-06 16:57 | 44.75425 | -3.57520 | 38001 ft | 463 kts | 33° |
| 2026-05-06 16:57 | 44.80718 | -3.52337 | 38001 ft | 463 kts | 33° |
| 2026-05-06 16:58 | 44.86003 | -3.47150 | 37999 ft | 463 kts | 33° |
| 2026-05-06 16:58 | 44.91289 | -3.41951 | 37999 ft | 463 kts | 33° |
| 2026-05-06 16:59 | 44.96579 | -3.36734 | 38007 ft | 463 kts | 33° |
| 2026-05-06 16:59 | 45.01855 | -3.31521 | 37995 ft | 462 kts | 33° |
| 2026-05-06 17:00 | 45.07123 | -3.26303 | 37996 ft | 463 kts | 33° |
| 2026-05-06 17:00 | 45.12389 | -3.21075 | 37993 ft | 463 kts | 33° |
| 2026-05-06 17:01 | 45.17656 | -3.15833 | 38000 ft | 462 kts | 33° |
| 2026-05-06 17:01 | 45.22907 | -3.10597 | 37993 ft | 461 kts | 33° |
| 2026-05-06 17:02 | 45.28157 | -3.05352 | 37991 ft | 462 kts | 33° |
| 2026-05-06 17:02 | 45.33607 | -3.00589 | 37992 ft | 456 kts | 20° |
| 2026-05-06 17:03 | 45.39438 | -2.96966 | 37967 ft | 457 kts | 21° |
| 2026-05-06 17:03 | 45.45273 | -2.93314 | 37987 ft | 458 kts | 21° |
| 2026-05-06 17:04 | 45.51109 | -2.89664 | 37988 ft | 458 kts | 21° |
| 2026-05-06 17:04 | 45.56944 | -2.86005 | 37993 ft | 458 kts | 21° |
| 2026-05-06 17:05 | 45.62766 | -2.82347 | 37991 ft | 457 kts | 21° |
| 2026-05-06 17:05 | 45.68591 | -2.78679 | 37985 ft | 457 kts | 21° |
| 2026-05-06 17:06 | 45.74414 | -2.75004 | 37990 ft | 457 kts | 22° |
| 2026-05-06 17:06 | 45.80234 | -2.71322 | 37983 ft | 458 kts | 22° |
| 2026-05-06 17:07 | 45.86066 | -2.67624 | 37980 ft | 458 kts | 22° |
| 2026-05-06 17:07 | 45.91897 | -2.63919 | 37980 ft | 458 kts | 22° |
| 2026-05-06 17:08 | 45.97726 | -2.60205 | 37981 ft | 458 kts | 22° |
| 2026-05-06 17:08 | 46.03547 | -2.56489 | 37980 ft | 458 kts | 22° |
| 2026-05-06 17:09 | 46.09371 | -2.52762 | 37971 ft | 458 kts | 22° |
| 2026-05-06 17:09 | 46.15196 | -2.49027 | 37988 ft | 458 kts | 22° |
| 2026-05-06 17:10 | 46.21029 | -2.45357 | 37972 ft | 457 kts | 21° |
| 2026-05-06 17:10 | 46.26867 | -2.41691 | 37974 ft | 457 kts | 21° |
| 2026-05-06 17:11 | 46.32702 | -2.38017 | 37969 ft | 458 kts | 21° |
| 2026-05-06 17:11 | 46.38559 | -2.34319 | 37974 ft | 459 kts | 21° |
| 2026-05-06 17:12 | 46.44409 | -2.30619 | 37976 ft | 459 kts | 21° |
| 2026-05-06 17:12 | 46.50252 | -2.26913 | 37973 ft | 459 kts | 22° |
| 2026-05-06 17:13 | 46.56104 | -2.23192 | 37978 ft | 458 kts | 22° |
| 2026-05-06 17:13 | 46.61945 | -2.19471 | 37965 ft | 458 kts | 22° |
| 2026-05-06 17:14 | 46.67782 | -2.15743 | 37957 ft | 458 kts | 22° |
| 2026-05-06 17:14 | 46.73613 | -2.12010 | 37950 ft | 458 kts | 22° |
| 2026-05-06 17:15 | 46.79449 | -2.08265 | 37958 ft | 458 kts | 22° |
| 2026-05-06 17:15 | 46.85281 | -2.04513 | 37966 ft | 458 kts | 22° |
| 2026-05-06 17:16 | 46.91119 | -2.00749 | 37967 ft | 459 kts | 22° |
| 2026-05-06 17:16 | 46.96916 | -1.97002 | 37953 ft | 459 kts | 22° |
| 2026-05-06 17:17 | 47.02755 | -1.93220 | 37967 ft | 459 kts | 22° |
| 2026-05-06 17:17 | 47.08583 | -1.89410 | 37950 ft | 459 kts | 25° |
| 2026-05-06 17:17 | 47.11251 | -1.86834 | 37950 ft | 460 kts | 41° |
| 2026-05-06 17:18 | 47.13370 | -1.83324 | 37956 ft | 463 kts | 56° |
| 2026-05-06 17:18 | 47.14859 | -1.79119 | 37962 ft | 466 kts | 70° |
| 2026-05-06 17:18 | 47.15614 | -1.74497 | 37966 ft | 467 kts | 84° |
| 2026-05-06 17:19 | 47.16010 | -1.64953 | 37958 ft | 469 kts | 82° |
| 2026-05-06 17:19 | 47.16802 | -1.60339 | 37944 ft | 465 kts | 65° |
| 2026-05-06 17:19 | 47.18313 | -1.56159 | 37973 ft | 465 kts | 59° |
| 2026-05-06 17:20 | 47.21562 | -1.47920 | 37955 ft | 466 kts | 58° |
| 2026-05-06 17:20 | 47.24874 | -1.39707 | 37966 ft | 466 kts | 58° |
| 2026-05-06 17:21 | 47.28187 | -1.31516 | 37961 ft | 466 kts | 58° |
| 2026-05-06 17:21 | 47.31502 | -1.23298 | 37955 ft | 466 kts | 58° |
| 2026-05-06 17:22 | 47.34806 | -1.15085 | 37962 ft | 466 kts | 58° |
| 2026-05-06 17:22 | 47.38110 | -1.06848 | 37962 ft | 466 kts | 58° |
| 2026-05-06 17:23 | 47.41404 | -0.98607 | 37955 ft | 466 kts | 58° |
| 2026-05-06 17:23 | 47.44672 | -0.90411 | 37962 ft | 466 kts | 58° |
| 2026-05-06 17:24 | 47.47952 | -0.82156 | 37970 ft | 466 kts | 59° |
| 2026-05-06 17:24 | 47.51233 | -0.73874 | 37966 ft | 466 kts | 59° |
| 2026-05-06 17:25 | 47.54505 | -0.65590 | 37966 ft | 466 kts | 59° |
| 2026-05-06 17:25 | 47.57772 | -0.57293 | 37961 ft | 466 kts | 59° |
| 2026-05-06 17:26 | 47.61032 | -0.48988 | 37978 ft | 466 kts | 59° |
| 2026-05-06 17:26 | 47.64287 | -0.40670 | 37970 ft | 466 kts | 59° |
| 2026-05-06 17:27 | 47.67530 | -0.32359 | 37963 ft | 466 kts | 59° |
| 2026-05-06 17:27 | 47.70775 | -0.24016 | 37966 ft | 466 kts | 59° |
| 2026-05-06 17:28 | 47.74009 | -0.15673 | 37963 ft | 466 kts | 59° |
| 2026-05-06 17:28 | 47.77238 | -0.07318 | 37969 ft | 466 kts | 59° |
| 2026-05-06 17:29 | 47.80461 | 0.01047 | 37975 ft | 466 kts | 59° |
| 2026-05-06 17:29 | 47.83681 | 0.09428 | 37963 ft | 466 kts | 59° |
| 2026-05-06 17:30 | 47.86844 | 0.17690 | 37960 ft | 466 kts | 59° |
| 2026-05-06 17:30 | 47.90055 | 0.26101 | 37970 ft | 467 kts | 59° |
| 2026-05-06 17:31 | 47.93257 | 0.34518 | 37965 ft | 467 kts | 59° |
| 2026-05-06 17:31 | 47.96452 | 0.42940 | 37972 ft | 466 kts | 60° |
| 2026-05-06 17:32 | 47.99640 | 0.51373 | 37957 ft | 467 kts | 60° |
| 2026-05-06 17:32 | 48.02827 | 0.59828 | 37959 ft | 467 kts | 60° |
| 2026-05-06 17:33 | 48.06004 | 0.68282 | 37949 ft | 467 kts | 60° |
| 2026-05-06 17:33 | 48.09176 | 0.76753 | 37948 ft | 467 kts | 60° |
| 2026-05-06 17:34 | 48.12340 | 0.85225 | 37945 ft | 467 kts | 60° |
| 2026-05-06 17:34 | 48.15502 | 0.93716 | 37942 ft | 468 kts | 60° |
| 2026-05-06 17:35 | 48.18661 | 1.02223 | 37945 ft | 467 kts | 60° |
| 2026-05-06 17:35 | 48.21920 | 1.10655 | 37925 ft | 466 kts | 51° |
| 2026-05-06 17:36 | 48.28078 | 1.21957 | 37940 ft | 466 kts | 50° |
| 2026-05-06 17:36 | 48.32184 | 1.29512 | 37930 ft | 467 kts | 50° |
| 2026-05-06 17:37 | 48.35597 | 1.35804 | 37932 ft | 469 kts | 50° |
| 2026-05-06 17:37 | 48.40382 | 1.44650 | 37932 ft | 469 kts | 50° |
| 2026-05-06 17:38 | 48.44492 | 1.52270 | 37935 ft | 469 kts | 50° |
| 2026-05-06 17:38 | 48.48597 | 1.59905 | 37931 ft | 469 kts | 50° |
| 2026-05-06 17:39 | 48.52007 | 1.66262 | 37930 ft | 469 kts | 50° |
| 2026-05-06 17:39 | 48.56107 | 1.73925 | 37932 ft | 469 kts | 50° |
| 2026-05-06 17:40 | 48.60208 | 1.81614 | 37929 ft | 470 kts | 50° |
| 2026-05-06 17:40 | 48.64304 | 1.89315 | 37940 ft | 470 kts | 50° |
| 2026-05-06 17:41 | 48.68400 | 1.97038 | 37934 ft | 471 kts | 51° |
| 2026-05-06 17:41 | 48.72500 | 2.04787 | 37934 ft | 471 kts | 51° |
| 2026-05-06 17:42 | 48.76049 | 2.13047 | 37928 ft | 469 kts | 69° |
| 2026-05-06 17:42 | 48.78555 | 2.22212 | 37913 ft | 471 kts | 68° |
| 2026-05-06 17:43 | 48.81037 | 2.31418 | 37938 ft | 472 kts | 68° |
| 2026-05-06 17:43 | 48.83491 | 2.40645 | 37939 ft | 472 kts | 68° |
| 2026-05-06 17:44 | 48.85935 | 2.49878 | 37939 ft | 472 kts | 68° |
| 2026-05-06 17:44 | 48.88375 | 2.59131 | 37933 ft | 472 kts | 68° |
| 2026-05-06 17:45 | 48.90803 | 2.68379 | 37930 ft | 470 kts | 68° |
| 2026-05-06 17:45 | 48.93219 | 2.77615 | 37930 ft | 470 kts | 69° |
| 2026-05-06 17:46 | 48.95627 | 2.86862 | 37906 ft | 470 kts | 69° |
| 2026-05-06 17:46 | 48.98024 | 2.96100 | 37911 ft | 470 kts | 69° |
| 2026-05-06 17:47 | 49.00383 | 3.05232 | 37907 ft | 470 kts | 69° |
| 2026-05-06 17:47 | 49.02771 | 3.14510 | 37902 ft | 471 kts | 69° |
| 2026-05-06 17:48 | 49.05152 | 3.23801 | 37908 ft | 471 kts | 69° |
| 2026-05-06 17:48 | 49.07526 | 3.33101 | 37910 ft | 471 kts | 69° |
| 2026-05-06 17:49 | 49.09888 | 3.42393 | 37196 ft | 469 kts | 69° |
| 2026-05-06 17:49 | 49.11071 | 3.47063 | 36245 ft | 474 kts | 69° |
| 2026-05-06 17:49 | 49.12249 | 3.51716 | 35823 ft | 466 kts | 69° |
| 2026-05-06 17:50 | 49.13408 | 3.56320 | 35211 ft | 464 kts | 71° |
| 2026-05-06 17:50 | 49.14314 | 3.61031 | 34594 ft | 461 kts | 76° |
| 2026-05-06 17:50 | 49.15135 | 3.65753 | 33971 ft | 459 kts | 76° |
| 2026-05-06 17:50 | 49.15944 | 3.70466 | 33220 ft | 458 kts | 76° |
| 2026-05-06 17:51 | 49.16743 | 3.75164 | 32437 ft | 457 kts | 76° |
| 2026-05-06 17:51 | 49.17531 | 3.79815 | 31617 ft | 458 kts | 76° |
| 2026-05-06 17:51 | 49.18327 | 3.84523 | 30904 ft | 456 kts | 77° |
| 2026-05-06 17:51 | 49.19121 | 3.89233 | 30494 ft | 448 kts | 76° |
| 2026-05-06 17:52 | 49.19887 | 3.93790 | 30131 ft | 439 kts | 77° |
| 2026-05-06 17:52 | 49.20655 | 3.98373 | 29683 ft | 451 kts | 77° |
| 2026-05-06 17:52 | 49.21428 | 4.02991 | 29171 ft | 457 kts | 77° |
| 2026-05-06 17:52 | 49.22214 | 4.07709 | 28639 ft | 460 kts | 76° |
| 2026-05-06 17:53 | 49.23003 | 4.12447 | 28143 ft | 460 kts | 77° |
| 2026-05-06 17:53 | 49.23790 | 4.17191 | 27862 ft | 461 kts | 76° |
| 2026-05-06 17:53 | 49.24576 | 4.21945 | 27577 ft | 461 kts | 76° |
| 2026-05-06 17:53 | 49.25360 | 4.26702 | 27252 ft | 460 kts | 76° |
| 2026-05-06 17:54 | 49.26138 | 4.31428 | 26643 ft | 456 kts | 76° |
| 2026-05-06 17:54 | 49.26906 | 4.36114 | 25948 ft | 452 kts | 76° |
| 2026-05-06 17:54 | 49.27670 | 4.40784 | 25301 ft | 449 kts | 76° |
| 2026-05-06 17:54 | 49.28423 | 4.45403 | 24662 ft | 446 kts | 76° |
| 2026-05-06 17:55 | 49.29172 | 4.50005 | 24033 ft | 443 kts | 76° |
| 2026-05-06 17:55 | 49.29912 | 4.54567 | 23390 ft | 441 kts | 76° |
| 2026-05-06 17:55 | 49.30650 | 4.59126 | 22662 ft | 439 kts | 76° |
| 2026-05-06 17:55 | 49.31378 | 4.63644 | 22038 ft | 435 kts | 76° |
| 2026-05-06 17:56 | 49.32099 | 4.68122 | 21416 ft | 431 kts | 76° |
| 2026-05-06 17:56 | 49.32813 | 4.72570 | 20810 ft | 427 kts | 76° |
| 2026-05-06 17:56 | 49.33519 | 4.76980 | 20209 ft | 424 kts | 76° |
| 2026-05-06 17:56 | 49.34218 | 4.81361 | 19609 ft | 422 kts | 76° |
| 2026-05-06 17:57 | 49.34912 | 4.85723 | 19015 ft | 420 kts | 76° |
| 2026-05-06 17:57 | 49.35602 | 4.90070 | 18429 ft | 418 kts | 76° |
| 2026-05-06 17:57 | 49.36286 | 4.94390 | 17810 ft | 417 kts | 76° |
| 2026-05-06 17:57 | 49.36967 | 4.98698 | 17191 ft | 414 kts | 76° |
| 2026-05-06 17:58 | 49.37641 | 5.02966 | 16624 ft | 409 kts | 76° |
| 2026-05-06 17:58 | 49.38305 | 5.07188 | 16073 ft | 405 kts | 76° |
| 2026-05-06 17:58 | 49.38994 | 5.11369 | 15498 ft | 402 kts | 71° |
| 2026-05-06 17:58 | 49.40208 | 5.15195 | 14922 ft | 398 kts | 59° |
| 2026-05-06 17:59 | 49.41563 | 5.18872 | 14469 ft | 393 kts | 59° |
| 2026-05-06 17:59 | 49.42907 | 5.22496 | 13974 ft | 389 kts | 59° |
| 2026-05-06 17:59 | 49.44246 | 5.26088 | 13452 ft | 386 kts | 59° |
| 2026-05-06 17:59 | 49.45573 | 5.29642 | 12901 ft | 382 kts | 59° |
| 2026-05-06 18:00 | 49.46885 | 5.33156 | 12597 ft | 373 kts | 59° |
| 2026-05-06 18:00 | 49.48153 | 5.36560 | 12451 ft | 361 kts | 59° |
| 2026-05-06 18:00 | 49.49380 | 5.39856 | 12252 ft | 351 kts | 59° |
| 2026-05-06 18:00 | 49.50577 | 5.43074 | 12073 ft | 340 kts | 59° |
| 2026-05-06 18:01 | 49.51733 | 5.46185 | 11905 ft | 330 kts | 59° |
| 2026-05-06 18:01 | 49.52852 | 5.49201 | 11763 ft | 320 kts | 59° |
| 2026-05-06 18:01 | 49.53906 | 5.52046 | 11611 ft | 312 kts | 58° |
| 2026-05-06 18:01 | 49.54941 | 5.54918 | 11435 ft | 304 kts | 64° |
| 2026-05-06 18:02 | 49.55599 | 5.57994 | 11108 ft | 303 kts | 73° |
| 2026-05-06 18:02 | 49.56164 | 5.61110 | 10800 ft | 300 kts | 73° |
| 2026-05-06 18:02 | 49.56732 | 5.64193 | 10483 ft | 298 kts | 72° |
| 2026-05-06 18:02 | 49.57300 | 5.67253 | 10177 ft | 296 kts | 73° |
| 2026-05-06 18:03 | 49.57861 | 5.70268 | 9986 ft | 289 kts | 73° |
| 2026-05-06 18:03 | 49.58406 | 5.73193 | 9840 ft | 281 kts | 72° |
| 2026-05-06 18:03 | 49.58943 | 5.76073 | 9557 ft | 279 kts | 73° |
| 2026-05-06 18:03 | 49.59476 | 5.78943 | 9224 ft | 277 kts | 72° |
| 2026-05-06 18:04 | 49.59998 | 5.81754 | 8923 ft | 275 kts | 72° |
| 2026-05-06 18:04 | 49.60524 | 5.84518 | 8623 ft | 273 kts | 70° |
| 2026-05-06 18:04 | 49.61167 | 5.87287 | 8339 ft | 270 kts | 68° |
| 2026-05-06 18:04 | 49.61803 | 5.89968 | 8053 ft | 268 kts | 68° |
| 2026-05-06 18:05 | 49.62438 | 5.92683 | 7770 ft | 265 kts | 67° |
| 2026-05-06 18:05 | 49.63067 | 5.95334 | 7489 ft | 263 kts | 68° |
| 2026-05-06 18:05 | 49.63690 | 5.97977 | 7217 ft | 260 kts | 68° |
| 2026-05-06 18:05 | 49.64283 | 6.00505 | 6952 ft | 258 kts | 66° |
| 2026-05-06 18:06 | 49.64996 | 6.03031 | 6679 ft | 255 kts | 63° |
| 2026-05-06 18:06 | 49.65738 | 6.05504 | 6409 ft | 253 kts | 62° |
| 2026-05-06 18:06 | 49.66472 | 6.07959 | 6145 ft | 251 kts | 63° |
| 2026-05-06 18:06 | 49.67199 | 6.10383 | 5876 ft | 248 kts | 63° |
| 2026-05-06 18:07 | 49.67920 | 6.12786 | 5612 ft | 246 kts | 63° |
| 2026-05-06 18:07 | 49.68630 | 6.15180 | 5396 ft | 243 kts | 63° |
| 2026-05-06 18:07 | 49.69320 | 6.17504 | 5272 ft | 235 kts | 63° |
| 2026-05-06 18:07 | 49.69981 | 6.19737 | 5160 ft | 227 kts | 63° |
| 2026-05-06 18:08 | 49.70626 | 6.21944 | 5068 ft | 218 kts | 63° |
| 2026-05-06 18:08 | 49.71239 | 6.24051 | 4961 ft | 211 kts | 63° |
| 2026-05-06 18:08 | 49.71824 | 6.26080 | 4837 ft | 210 kts | 63° |
| 2026-05-06 18:08 | 49.72421 | 6.28148 | 4751 ft | 214 kts | 63° |
| 2026-05-06 18:09 | 49.73012 | 6.30212 | 4749 ft | 200 kts | 63° |
| 2026-05-06 18:09 | 49.73546 | 6.32095 | 4673 ft | 189 kts | 63° |
| 2026-05-06 18:09 | 49.74059 | 6.33896 | 4568 ft | 178 kts | 63° |
| 2026-05-06 18:09 | 49.74555 | 6.35632 | 4484 ft | 174 kts | 63° |
| 2026-05-06 18:10 | 49.75039 | 6.37346 | 4464 ft | 175 kts | 63° |
| 2026-05-06 18:10 | 49.75528 | 6.39065 | 4335 ft | 174 kts | 62° |
| 2026-05-06 18:10 | 49.75810 | 6.40873 | 4041 ft | 178 kts | 93° |
| 2026-05-06 18:10 | 49.75284 | 6.42603 | 3750 ft | 183 kts | 135° |
| 2026-05-06 18:11 | 49.74147 | 6.43415 | 3482 ft | 183 kts | 177° |
| 2026-05-06 18:11 | 49.72937 | 6.42973 | 3277 ft | 179 kts | 210° |
| 2026-05-06 18:11 | 49.71844 | 6.42037 | 3187 ft | 180 kts | 213° |
| 2026-05-06 18:11 | 49.70763 | 6.41058 | 3115 ft | 180 kts | 213° |
| 2026-05-06 18:12 | 49.69746 | 6.39986 | 3019 ft | 177 kts | 227° |
| 2026-05-06 18:12 | 49.69018 | 6.38479 | 2977 ft | 173 kts | 244° |
| 2026-05-06 18:12 | 49.68451 | 6.36840 | 2984 ft | 174 kts | 245° |
| 2026-05-06 18:12 | 49.67867 | 6.35233 | 2971 ft | 163 kts | 244° |
| 2026-05-06 18:13 | 49.67327 | 6.33779 | 2800 ft | 153 kts | 244° |
| 2026-05-06 18:13 | 49.66802 | 6.32357 | 2580 ft | 152 kts | 245° |
| 2026-05-06 18:13 | 49.66275 | 6.30940 | 2395 ft | 151 kts | 245° |
| 2026-05-06 18:13 | 49.65757 | 6.29538 | 2141 ft | 151 kts | 245° |
| 2026-05-06 18:14 | 49.65237 | 6.28141 | 1962 ft | 150 kts | 243° |
| 2026-05-06 18:14 | 49.64706 | 6.26752 | 1743 ft | 150 kts | 243° |
| 2026-05-06 18:14 | 49.64201 | 6.25357 | 1524 ft | 150 kts | 244° |
| 2026-05-06 18:14 | 49.63700 | 6.24015 | 1327 ft | 147 kts | 242° |
| 2026-05-06 18:15 | 49.63173 | 6.22616 | 1512 ft | 159 kts | 244° |
| 2026-05-06 18:15 | 49.62599 | 6.21100 | 2320 ft | 169 kts | 244° |
| 2026-05-06 18:15 | 49.61983 | 6.19578 | 2929 ft | 163 kts | 242° |
| 2026-05-06 18:15 | 49.61364 | 6.18099 | 3106 ft | 165 kts | 243° |
| 2026-05-06 18:16 | 49.60795 | 6.16578 | 3171 ft | 164 kts | 246° |
| 2026-05-06 18:16 | 49.60254 | 6.14982 | 3139 ft | 172 kts | 248° |
| 2026-05-06 18:16 | 49.59701 | 6.13300 | 3117 ft | 178 kts | 248° |
| 2026-05-06 18:16 | 49.59296 | 6.11528 | 3126 ft | 177 kts | 266° |
| 2026-05-06 18:17 | 49.59386 | 6.09664 | 3088 ft | 175 kts | 289° |
| 2026-05-06 18:17 | 49.59904 | 6.08016 | 2905 ft | 171 kts | 309° |
| 2026-05-06 18:17 | 49.60857 | 6.06913 | 2780 ft | 170 kts | 343° |
| 2026-05-06 18:17 | 49.62026 | 6.06951 | 2737 ft | 169 kts | 17° |
| 2026-05-06 18:18 | 49.63028 | 6.07683 | 2986 ft | 151 kts | 24° |
| 2026-05-06 18:18 | 49.63971 | 6.08444 | 2891 ft | 157 kts | 25° |
| 2026-05-06 18:18 | 49.64938 | 6.09199 | 2822 ft | 158 kts | 21° |
| 2026-05-06 18:18 | 49.65951 | 6.09835 | 2890 ft | 155 kts | 19° |
| 2026-05-06 18:19 | 49.66939 | 6.10481 | 3092 ft | 158 kts | 21° |
| 2026-05-06 18:19 | 49.67995 | 6.11216 | 3002 ft | 171 kts | 22° |
| 2026-05-06 18:19 | 49.69077 | 6.12018 | 2980 ft | 174 kts | 24° |
| 2026-05-06 18:19 | 49.70163 | 6.12874 | 3101 ft | 176 kts | 24° |
| 2026-05-06 18:20 | 49.71260 | 6.13740 | 3049 ft | 178 kts | 25° |
| 2026-05-06 18:20 | 49.72342 | 6.14660 | 2863 ft | 177 kts | 27° |
| 2026-05-06 18:20 | 49.73385 | 6.15623 | 2710 ft | 174 kts | 34° |
| 2026-05-06 18:20 | 49.74227 | 6.17011 | 2893 ft | 181 kts | 53° |
| 2026-05-06 18:21 | 49.74773 | 6.18757 | 3070 ft | 186 kts | 68° |
| 2026-05-06 18:21 | 49.75094 | 6.20715 | 3045 ft | 188 kts | 71° |
| 2026-05-06 18:21 | 49.75467 | 6.22629 | 2941 ft | 185 kts | 68° |
| 2026-05-06 18:21 | 49.75847 | 6.24576 | 3016 ft | 196 kts | 71° |
| 2026-05-06 18:22 | 49.76183 | 6.26679 | 3052 ft | 204 kts | 73° |
| 2026-05-06 18:22 | 49.76518 | 6.28832 | 3028 ft | 207 kts | 73° |
| 2026-05-06 18:22 | 49.76840 | 6.30869 | 3011 ft | 207 kts | 72° |
| 2026-05-06 18:22 | 49.77177 | 6.33030 | 2985 ft | 208 kts | 73° |
| 2026-05-06 18:23 | 49.77474 | 6.35221 | 2974 ft | 210 kts | 84° |
| 2026-05-06 18:23 | 49.77121 | 6.37388 | 2958 ft | 214 kts | 112° |
| 2026-05-06 18:23 | 49.76486 | 6.39479 | 3025 ft | 216 kts | 112° |
| 2026-05-06 18:23 | 49.75835 | 6.41580 | 3027 ft | 216 kts | 112° |
| 2026-05-06 18:24 | 49.75077 | 6.43573 | 2974 ft | 217 kts | 132° |
| 2026-05-06 18:24 | 49.73822 | 6.44771 | 2949 ft | 206 kts | 165° |
| 2026-05-06 18:24 | 49.72485 | 6.44739 | 2943 ft | 189 kts | 201° |
| 2026-05-06 18:24 | 49.71404 | 6.43681 | 2981 ft | 183 kts | 224° |
| 2026-05-06 18:25 | 49.70534 | 6.42262 | 3013 ft | 181 kts | 235° |
| 2026-05-06 18:25 | 49.69848 | 6.40645 | 3058 ft | 180 kts | 244° |
| 2026-05-06 18:25 | 49.69245 | 6.38977 | 3024 ft | 173 kts | 244° |
| 2026-05-06 18:25 | 49.68679 | 6.37433 | 2942 ft | 157 kts | 244° |
| 2026-05-06 18:26 | 49.68321 | 6.36465 | 2923 ft | 152 kts | 244° |
| 2026-05-06 18:26 | 49.67795 | 6.35039 | 2950 ft | 154 kts | 245° |
| 2026-05-06 18:26 | 49.67279 | 6.33647 | 2788 ft | 150 kts | 244° |
| 2026-05-06 18:26 | 49.66754 | 6.32227 | 2471 ft | 150 kts | 245° |
| 2026-05-06 18:27 | 49.66224 | 6.30816 | 2322 ft | 151 kts | 244° |
| 2026-05-06 18:27 | 49.65699 | 6.29441 | 2107 ft | 150 kts | 244° |
| 2026-05-06 18:27 | 49.65189 | 6.28047 | 1892 ft | 149 kts | 245° |
| 2026-05-06 18:27 | 49.64696 | 6.26648 | 1704 ft | 147 kts | 244° |
| 2026-05-06 18:28 | 49.64173 | 6.25282 | 1526 ft | 149 kts | 243° |
| 2026-05-06 18:28 | 49.63660 | 6.23902 | 1319 ft | 156 kts | 243° |
| 2026-05-06 18:28 | 49.63164 | 6.22541 | 1216 ft | 133 kts | 236° |
| 2026-05-06 18:28 | 49.62810 | 6.21590 | 1224 ft | 69 kts | 240° |
| 2026-05-06 18:29 | 49.62682 | 6.21226 | 1233 ft | 27 kts | 251° |
| 2026-05-06 18:29 | 49.62646 | 6.20966 | 1237 ft | 12 kts | 269° |
| 2026-05-06 18:29 | 49.62646 | 6.20877 | 1236 ft | 9 kts | 272° |
| 2026-05-06 18:29 | 49.62664 | 6.20777 | 1238 ft | 11 kts | 304° |
| 2026-05-06 18:30 | 49.62733 | 6.20741 | 1241 ft | 12 kts | 8° |
| 2026-05-06 18:30 | 49.62799 | 6.20783 | 1241 ft | 11 kts | 45° |
| 2026-05-06 18:30 | 49.62843 | 6.20893 | 1243 ft | 15 kts | 68° |
| 2026-05-06 18:30 | 49.62898 | 6.21067 | 1238 ft | 20 kts | 63° |
| 2026-05-06 18:31 | 49.62957 | 6.21261 | 1237 ft | 22 kts | 64° |
| 2026-05-06 18:31 | 49.63031 | 6.21499 | 1229 ft | 26 kts | 64° |
| 2026-05-06 18:31 | 49.63110 | 6.21750 | 1228 ft | 18 kts | 63° |
| 2026-05-06 18:31 | 49.63138 | 6.21833 | 1229 ft | 0 kts | 64° |
| 2026-05-06 18:32 | 49.63139 | 6.21838 | 1229 ft | 1 kts | 64° |
| 2026-05-06 18:32 | 49.63145 | 6.21859 | 1229 ft | 5 kts | 65° |
| 2026-05-06 18:32 | 49.63188 | 6.21902 | 1230 ft | 9 kts | 352° |
| 2026-05-06 18:32 | 49.63251 | 6.21850 | 1232 ft | 10 kts | 329° |
| 2026-05-06 18:33 | 49.63307 | 6.21770 | 1232 ft | 12 kts | 278° |
| 2026-05-06 18:33 | 49.63283 | 6.21687 | 1232 ft | 6 kts | 236° |
| 2026-05-06 18:33 | 49.63272 | 6.21614 | 1232 ft | 8 kts | 266° |
| 2026-05-06 18:33 | 49.63272 | 6.21565 | 1232 ft | 5 kts | 278° |
| 2026-05-06 18:34 | 49.63292 | 6.21524 | 1232 ft | 3 kts | 326° |
| 2026-05-06 18:34 | 49.63302 | 6.21513 | 1232 ft | 1 kts | 328° |
| 2026-05-06 18:34 | 49.63305 | 6.21511 | 1232 ft | 0 kts | 328° |
| 2026-05-06 18:34 | 49.63308 | 6.21508 | 1232 ft | 0 kts | 329° |